createdAt,value
2022-08-30T00:03:02.989Z,8.43
2022-08-30T00:06:08.934Z,8.77
2022-08-30T00:09:14.960Z,7.57
2022-08-30T00:12:23.222Z,7.97
2022-08-30T00:15:29.523Z,8.45
2022-08-30T00:18:34.857Z,10.23
2022-08-30T00:21:41.043Z,9.18
2022-08-30T00:24:46.102Z,9.65
2022-08-30T00:27:53.991Z,8.48
2022-08-30T00:30:59.173Z,8.80
2022-08-30T00:34:04.472Z,8.60
2022-08-30T00:37:09.654Z,8.15
2022-08-30T00:40:16.167Z,9.38
2022-08-30T00:43:27.785Z,8.68
2022-08-30T00:46:33.398Z,7.90
2022-08-30T00:49:39.684Z,9.73
2022-08-30T00:52:46.149Z,8.20
2022-08-30T00:55:52.133Z,8.65
2022-08-30T00:59:01.068Z,9.40
2022-08-30T01:02:06.621Z,8.50
2022-08-30T01:05:16.001Z,8.95
2022-08-30T01:08:22.409Z,9.00
2022-08-30T01:11:28.715Z,8.75
2022-08-30T01:14:36.901Z,8.57
2022-08-30T01:17:44.386Z,8.68
2022-08-30T01:20:53.084Z,9.45
2022-08-30T01:24:01.214Z,9.63
2022-08-30T01:27:06.663Z,8.90
2022-08-30T01:30:12.665Z,9.13
2022-08-30T01:33:20.278Z,9.32
2022-08-30T01:36:25.607Z,9.57
2022-08-30T01:39:33.696Z,8.98
2022-08-30T01:42:39.013Z,9.35
2022-08-30T01:45:44.626Z,9.35
2022-08-30T01:48:53.925Z,8.80
2022-08-30T01:52:00.630Z,8.65
2022-08-30T01:55:10.248Z,9.38
2022-08-30T01:58:15.861Z,8.48
2022-08-30T02:01:22.619Z,9.75
2022-08-30T02:04:27.610Z,9.15
2022-08-30T02:07:32.994Z,9.25
2022-08-30T02:10:40.606Z,8.57
2022-08-30T02:13:46.851Z,9.02
2022-08-30T02:16:51.887Z,9.68
2022-08-30T02:20:00.179Z,9.18
2022-08-30T02:23:05.451Z,10.77
2022-08-30T02:26:13.815Z,9.77
2022-08-30T02:29:19.041Z,9.55
2022-08-30T02:32:23.955Z,9.73
2022-08-30T02:35:29.554Z,9.23
2022-08-30T02:38:34.597Z,10.25
2022-08-30T02:41:42.414Z,9.80
2022-08-30T02:44:47.808Z,10.40
2022-08-30T02:47:52.914Z,10.45
2022-08-30T02:50:58.196Z,9.35
2022-08-30T02:54:03.328Z,10.55
2022-08-30T02:57:15.208Z,9.32
2022-08-30T03:00:25.561Z,9.98
2022-08-30T03:03:30.789Z,9.45
2022-08-30T03:06:36.027Z,10.70
2022-08-30T03:09:41.729Z,9.75
2022-08-30T03:12:50.450Z,10.32
2022-08-30T03:15:55.648Z,10.73
2022-08-30T03:19:00.961Z,10.18
2022-08-30T03:22:06.625Z,10.93
2022-08-30T03:25:12.217Z,10.05
2022-08-30T03:28:19.828Z,10.18
2022-08-30T03:31:25.021Z,10.00
2022-08-30T03:34:30.541Z,10.18
2022-08-30T03:37:35.875Z,10.27
2022-08-30T03:40:41.007Z,10.57
2022-08-30T03:43:49.689Z,10.25
2022-08-30T03:46:56.073Z,9.07
2022-08-30T03:50:01.322Z,10.07
2022-08-30T03:53:08.461Z,11.50
2022-08-30T03:56:13.872Z,10.13
2022-08-30T03:59:21.912Z,10.63
2022-08-30T04:02:27.006Z,10.48
2022-08-30T04:05:32.397Z,10.73
2022-08-30T04:08:37.434Z,11.57
2022-08-30T04:11:42.812Z,11.48
2022-08-30T04:14:50.717Z,11.07
2022-08-30T04:17:56.339Z,11.57
2022-08-30T04:21:01.594Z,11.35
2022-08-30T04:24:07.162Z,11.50
2022-08-30T04:27:12.611Z,11.95
2022-08-30T04:30:20.926Z,11.57
2022-08-30T04:33:26.266Z,10.90
2022-08-30T04:36:31.238Z,12.00
2022-08-30T04:39:36.323Z,12.38
2022-08-30T04:42:41.661Z,11.50
2022-08-30T04:45:50.166Z,12.68
2022-08-30T04:48:55.265Z,12.10
2022-08-30T04:52:00.500Z,13.13
2022-08-30T04:55:05.481Z,12.75
2022-08-30T04:58:10.692Z,13.95
2022-08-30T05:01:20.184Z,14.88
2022-08-30T05:04:25.202Z,14.85
2022-08-30T05:07:30.458Z,13.70
2022-08-30T05:10:36.946Z,13.48
2022-08-30T05:13:42.292Z,14.40
2022-08-30T05:16:50.152Z,13.57
2022-08-30T05:19:55.259Z,14.57
2022-08-30T05:23:00.461Z,13.75
2022-08-30T05:26:07.788Z,14.88
2022-08-30T05:29:13.095Z,14.70
2022-08-30T05:32:21.003Z,15.20
2022-08-30T05:35:26.221Z,15.50
2022-08-30T05:38:31.529Z,15.98
2022-08-30T05:41:36.878Z,15.35
2022-08-30T05:44:41.884Z,15.85
2022-08-30T05:47:52.036Z,15.93
2022-08-30T05:51:04.582Z,15.25
2022-08-30T05:54:09.760Z,15.18
2022-08-30T05:57:15.286Z,15.30
2022-08-30T06:00:21.018Z,15.32
2022-08-30T06:03:28.926Z,15.57
2022-08-30T06:06:35.352Z,16.83
2022-08-30T06:09:40.322Z,15.43
2022-08-30T06:12:45.472Z,15.52
2022-08-30T06:15:52.801Z,15.38
2022-08-30T06:19:01.230Z,16.37
2022-08-30T06:22:06.627Z,16.55
2022-08-30T06:25:12.594Z,16.92
2022-08-30T06:28:18.568Z,16.20
2022-08-30T06:31:24.306Z,16.25
2022-08-30T06:34:32.711Z,15.45
2022-08-30T06:37:37.965Z,17.20
2022-08-30T06:40:43.436Z,16.27
2022-08-30T06:43:49.356Z,15.75
2022-08-30T06:46:54.875Z,15.88
2022-08-30T06:50:02.764Z,16.08
2022-08-30T06:53:08.706Z,16.05
2022-08-30T06:56:16.794Z,15.95
2022-08-30T06:59:21.947Z,16.10
2022-08-30T07:02:27.420Z,15.48
2022-08-30T07:05:35.919Z,15.63
2022-08-30T07:11:45.745Z,15.35
2022-08-30T07:14:50.843Z,16.05
2022-08-30T07:18:08.498Z,15.20
2022-08-30T07:21:16.678Z,15.82
2022-08-30T07:24:21.783Z,14.98
2022-08-30T07:27:26.971Z,15.68
2022-08-30T07:30:32.067Z,15.85
2022-08-30T07:33:37.049Z,15.15
2022-08-30T07:36:44.988Z,16.05
2022-08-30T07:39:50.119Z,15.00
2022-08-30T07:42:55.402Z,16.40
2022-08-30T07:46:03.869Z,16.42
2022-08-30T07:49:11.128Z,16.50
2022-08-30T07:52:19.403Z,15.88
2022-08-30T07:55:24.895Z,15.13
2022-08-30T07:58:30.147Z,15.13
2022-08-30T08:01:35.886Z,15.23
2022-08-30T08:04:41.163Z,14.68
2022-08-30T08:07:49.084Z,15.98
2022-08-30T08:10:54.381Z,14.90
2022-08-30T08:13:59.502Z,16.23
2022-08-30T08:17:05.312Z,15.85
2022-08-30T08:20:11.206Z,14.60
2022-08-30T08:23:19.483Z,14.85
2022-08-30T08:26:25.034Z,15.15
2022-08-30T08:29:30.055Z,15.32
2022-08-30T08:32:35.392Z,14.82
2022-08-30T08:35:40.508Z,14.57
2022-08-30T08:38:48.406Z,14.13
2022-08-30T08:41:57.510Z,14.43
2022-08-30T08:45:08.765Z,14.98
2022-08-30T08:48:21.875Z,13.88
2022-08-30T08:51:44.053Z,13.75
2022-08-30T08:54:56.443Z,14.48
2022-08-30T08:58:04.683Z,14.30
2022-08-30T09:01:11.278Z,13.40
2022-08-30T09:04:20.613Z,12.95
2022-08-30T09:07:27.642Z,14.65
2022-08-30T09:10:49.948Z,12.80
2022-08-30T09:13:56.220Z,12.82
2022-08-30T09:17:03.441Z,13.88
2022-08-30T09:20:08.968Z,13.23
2022-08-30T09:23:23.517Z,12.90
2022-08-30T09:26:35.430Z,12.65
2022-08-30T09:29:41.172Z,12.80
2022-08-30T09:32:47.512Z,14.07
2022-08-30T09:35:54.165Z,12.65
2022-08-30T09:39:04.288Z,12.32
2022-08-30T09:42:18.196Z,12.63
2022-08-30T09:45:32.063Z,13.27
2022-08-30T09:48:38.406Z,13.63
2022-08-30T09:51:49.632Z,14.68
2022-08-30T09:55:07.228Z,13.38
2022-08-30T09:58:20.691Z,13.45
2022-08-30T10:01:30.934Z,13.68
2022-08-30T10:04:42.433Z,13.80
2022-08-30T10:07:54.935Z,13.63
2022-08-30T10:11:02.437Z,13.68
2022-08-30T10:14:22.158Z,13.98
2022-08-30T10:17:39.502Z,13.25
2022-08-30T10:20:47.196Z,12.68
2022-08-30T10:23:54.769Z,12.30
2022-08-30T10:27:03.092Z,11.93
2022-08-30T10:30:14.158Z,13.07
2022-08-30T10:33:25.350Z,12.32
2022-08-30T10:36:34.098Z,12.52
2022-08-30T10:39:43.720Z,13.30
2022-08-30T10:42:49.494Z,13.85
2022-08-30T10:45:59.789Z,14.73
2022-08-30T10:49:05.951Z,14.18
2022-08-30T10:52:18.542Z,14.48
2022-08-30T10:55:26.252Z,14.38
2022-08-30T10:58:31.620Z,13.60
2022-08-30T11:01:46.451Z,14.15
2022-08-30T11:05:10.551Z,15.18
2022-08-30T11:08:22.967Z,15.65
2022-08-30T11:11:32.697Z,15.63
2022-08-30T11:14:43.348Z,15.68
2022-08-30T11:17:57.961Z,15.77
2022-08-30T11:21:18.132Z,15.63
2022-08-30T11:24:24.121Z,16.35
2022-08-30T11:27:43.986Z,15.20
2022-08-30T11:30:50.193Z,15.10
2022-08-30T11:34:00.872Z,14.98
2022-08-30T11:37:09.986Z,14.95
2022-08-30T11:40:30.377Z,14.30
2022-08-30T11:43:50.450Z,14.07
2022-08-30T11:46:59.199Z,13.35
2022-08-30T11:50:12.278Z,12.98
2022-08-30T11:53:21.506Z,13.45
2022-08-30T11:56:30.674Z,14.13
2022-08-30T11:59:41.587Z,14.93
2022-08-30T12:02:49.477Z,12.45
2022-08-30T12:05:59.939Z,12.60
2022-08-30T12:09:08.300Z,12.55
2022-08-30T12:12:14.142Z,12.60
2022-08-30T12:15:34.171Z,13.48
2022-08-30T12:18:46.790Z,14.55
2022-08-30T12:22:01.261Z,14.15
2022-08-30T12:25:16.333Z,14.82
2022-08-30T12:28:26.282Z,14.20
2022-08-30T12:31:31.561Z,14.63
2022-08-30T12:34:38.753Z,14.80
2022-08-30T12:37:46.825Z,13.85
2022-08-30T12:40:56.199Z,14.95
2022-08-30T12:44:02.205Z,14.23
2022-08-30T12:47:12.773Z,15.43
2022-08-30T12:50:22.584Z,13.63
2022-08-30T12:53:32.912Z,14.35
2022-08-30T12:56:53.066Z,14.80
2022-08-30T12:59:59.422Z,14.73
2022-08-30T13:03:30.344Z,14.90
2022-08-30T13:06:44.461Z,13.85
2022-08-30T13:09:52.359Z,14.18
2022-08-30T13:13:01.539Z,13.77
2022-08-30T13:16:14.914Z,15.25
2022-08-30T13:19:27.888Z,14.35
2022-08-30T13:22:34.258Z,14.48
2022-08-30T13:28:51.648Z,11.70
2022-08-30T13:31:57.131Z,11.32
2022-08-30T13:35:02.505Z,10.40
2022-08-30T13:38:07.982Z,10.98
2022-08-30T13:41:13.065Z,11.35
2022-08-30T13:44:20.845Z,11.68
2022-08-30T13:47:35.005Z,11.88
2022-08-30T13:50:40.800Z,13.20
2022-08-30T13:53:53.888Z,12.63
2022-08-30T13:56:59.735Z,11.50
2022-08-30T14:00:12.540Z,11.27
2022-08-30T14:03:19.392Z,11.75
2022-08-30T14:06:33.129Z,12.07
2022-08-30T14:09:39.284Z,11.88
2022-08-30T14:13:07.994Z,12.60
2022-08-30T14:16:28.195Z,13.20
2022-08-30T14:19:33.522Z,12.45
2022-08-30T14:22:38.632Z,11.85
2022-08-30T14:25:44.623Z,10.57
2022-08-30T14:28:51.723Z,10.10
2022-08-30T14:32:00.811Z,10.30
2022-08-30T14:35:06.313Z,10.20
2022-08-30T14:38:12.621Z,8.00
2022-08-30T14:41:17.966Z,9.00
2022-08-30T14:44:24.463Z,8.85
2022-08-30T14:47:32.564Z,10.10
2022-08-30T14:53:42.423Z,13.32
2022-08-30T14:56:47.645Z,9.93
2022-08-30T14:59:52.615Z,10.73
2022-08-30T15:03:00.539Z,9.25
2022-08-30T15:06:05.815Z,8.98
2022-08-30T15:09:12.427Z,8.35
2022-08-30T15:12:17.714Z,6.63
2022-08-30T15:15:24.499Z,6.97
2022-08-30T15:18:32.127Z,7.20
2022-08-30T15:21:38.893Z,5.75
2022-08-30T15:24:44.417Z,7.38
2022-08-30T15:27:54.239Z,7.15
2022-08-30T15:31:03.112Z,6.32
2022-08-30T15:34:14.912Z,5.90
2022-08-30T15:37:22.784Z,5.60
2022-08-30T15:40:28.450Z,6.55
2022-08-30T15:43:33.885Z,6.95
2022-08-30T15:46:41.232Z,6.63
2022-08-30T15:49:49.094Z,6.03
2022-08-30T15:52:54.184Z,7.45
2022-08-30T15:56:00.120Z,6.28
2022-08-30T15:59:05.709Z,7.72
2022-08-30T16:02:12.538Z,7.07
2022-08-30T16:05:21.554Z,6.68
2022-08-30T16:08:26.890Z,7.22
2022-08-30T16:11:32.013Z,7.13
2022-08-30T16:14:37.208Z,9.07
2022-08-30T16:17:42.659Z,7.53
2022-08-30T16:20:50.609Z,6.78
2022-08-30T16:23:57.623Z,7.68
2022-08-30T16:27:02.953Z,6.45
2022-08-30T16:30:08.504Z,7.65
2022-08-30T16:33:14.099Z,8.38
2022-08-30T16:36:21.986Z,6.88
2022-08-30T16:42:32.016Z,7.10
2022-08-30T16:45:37.331Z,7.65
2022-08-30T16:48:43.251Z,7.93
2022-08-30T16:51:50.825Z,8.00
2022-08-30T16:54:57.545Z,7.20
2022-08-30T16:58:04.412Z,8.57
2022-08-30T17:01:10.321Z,9.70
2022-08-30T17:04:18.335Z,8.15
2022-08-30T17:07:27.193Z,7.53
2022-08-30T17:10:34.841Z,8.35
2022-08-30T17:13:40.702Z,8.68
2022-08-30T17:16:45.742Z,8.15
2022-08-30T17:19:51.165Z,7.15
2022-08-30T17:22:59.570Z,8.32
2022-08-30T17:26:07.259Z,9.38
2022-08-30T17:29:15.831Z,9.55
2022-08-30T17:32:21.127Z,8.70
2022-08-30T17:35:26.279Z,9.02
2022-08-30T17:38:33.906Z,11.05
2022-08-30T17:41:39.374Z,8.77
2022-08-30T17:44:44.889Z,9.43
2022-08-30T17:47:49.960Z,9.77
2022-08-30T17:50:58.023Z,10.27
2022-08-30T17:57:12.147Z,10.65
2022-08-30T18:00:17.645Z,13.40
2022-08-30T18:03:23.942Z,10.13
2022-08-30T18:06:28.973Z,9.70
2022-08-30T18:09:34.356Z,10.43
2022-08-30T18:12:42.416Z,9.20
2022-08-30T18:15:47.594Z,9.40
2022-08-30T18:18:57.361Z,9.65
2022-08-30T18:22:21.935Z,10.48
2022-08-30T18:25:27.162Z,10.10
2022-08-30T18:28:36.018Z,9.95
2022-08-30T18:31:41.744Z,8.15
2022-08-30T18:34:48.443Z,9.40
2022-08-30T18:37:53.667Z,9.73
2022-08-30T18:41:01.080Z,9.35
2022-08-30T18:44:26.762Z,9.85
2022-08-30T18:47:33.412Z,8.95
2022-08-30T18:50:40.118Z,9.27
2022-08-30T18:53:47.533Z,10.02
2022-08-30T18:56:54.213Z,10.60
2022-08-30T19:00:03.563Z,9.23
2022-08-30T19:03:09.278Z,9.18
2022-08-30T19:06:15.260Z,10.73
2022-08-30T19:12:28.171Z,8.93
2022-08-30T19:15:37.982Z,9.00
2022-08-30T19:18:43.443Z,8.57
2022-08-30T19:21:50.249Z,9.88
2022-08-30T19:24:55.278Z,8.50
2022-08-30T19:28:00.433Z,9.38
2022-08-30T19:31:08.226Z,11.45
2022-08-30T19:34:13.502Z,9.20
2022-08-30T19:37:18.770Z,9.63
2022-08-30T19:40:25.386Z,9.38
2022-08-30T19:43:30.970Z,9.18
2022-08-30T19:46:39.024Z,9.57
2022-08-30T19:49:44.059Z,9.35
2022-08-30T19:52:54.052Z,9.13
2022-08-30T19:55:59.717Z,8.38
2022-08-30T19:59:05.171Z,10.13
2022-08-30T20:02:13.850Z,9.38
2022-08-30T20:08:23.872Z,9.85
2022-08-30T20:11:29.335Z,10.15
2022-08-30T20:14:34.507Z,10.23
2022-08-30T20:18:02.609Z,9.18
2022-08-30T20:21:07.729Z,11.10
2022-08-30T20:24:18.821Z,9.18
2022-08-30T20:27:24.211Z,8.15
2022-08-30T20:30:29.546Z,8.55
2022-08-30T20:33:39.455Z,8.30
2022-08-30T20:36:44.621Z,8.88
2022-08-30T20:39:49.852Z,8.85
2022-08-30T20:42:54.890Z,8.48
2022-08-30T20:46:00.177Z,8.82
2022-08-30T20:49:07.815Z,8.38
2022-08-30T20:52:12.901Z,8.45
2022-08-30T20:55:18.207Z,7.70
2022-08-30T20:58:23.509Z,6.55
2022-08-30T21:01:30.061Z,5.95
2022-08-30T21:04:38.280Z,6.05
2022-08-30T21:07:43.422Z,5.85
2022-08-30T21:10:48.641Z,5.75
2022-08-30T21:13:53.598Z,5.97
2022-08-30T21:16:58.660Z,6.68
2022-08-30T21:20:07.866Z,5.93
2022-08-30T21:23:13.746Z,5.55
2022-08-30T21:26:18.980Z,6.10
2022-08-30T21:29:24.104Z,8.23
2022-08-30T21:32:29.238Z,6.78
2022-08-30T21:35:49.533Z,6.45
2022-08-30T21:38:54.679Z,6.43
2022-08-30T21:42:06.423Z,6.57
2022-08-30T21:45:12.407Z,6.72
2022-08-30T21:48:18.307Z,6.75
2022-08-30T21:51:26.159Z,6.88
2022-08-30T21:54:31.702Z,6.95
2022-08-30T21:57:36.761Z,6.22
2022-08-30T22:00:42.154Z,6.57
2022-08-30T22:03:47.670Z,7.00
2022-08-30T22:06:55.386Z,6.80
2022-08-30T22:10:01.588Z,6.65
2022-08-30T22:13:15.741Z,6.90
2022-08-30T22:16:23.456Z,6.60
2022-08-30T22:19:28.705Z,6.72
2022-08-30T22:22:41.531Z,6.90
2022-08-30T22:25:46.625Z,7.40
2022-08-30T22:28:51.762Z,7.22
2022-08-30T22:31:57.122Z,7.00
2022-08-30T22:35:02.263Z,7.32
2022-08-30T22:38:10.756Z,7.15
2022-08-30T22:41:17.391Z,7.03
2022-08-30T22:44:22.751Z,7.00
2022-08-30T22:47:27.820Z,7.25
2022-08-30T22:50:32.897Z,7.30
2022-08-30T22:53:40.717Z,7.30
2022-08-30T22:56:45.846Z,6.93
2022-08-30T22:59:52.326Z,7.07
2022-08-30T23:02:57.291Z,6.90
2022-08-30T23:06:02.487Z,7.25
2022-08-30T23:09:11.387Z,6.70
2022-08-30T23:12:16.852Z,7.35
2022-08-30T23:15:21.929Z,8.00
2022-08-30T23:18:27.183Z,11.23
2022-08-30T23:21:33.030Z,7.20
2022-08-30T23:24:53.213Z,7.10
2022-08-30T23:28:11.903Z,7.10
2022-08-30T23:31:36.424Z,7.40
2022-08-30T23:34:54.117Z,7.85
2022-08-30T23:38:11.534Z,6.70
2022-08-30T23:41:33.994Z,7.30
2022-08-30T23:44:51.865Z,7.68
2022-08-30T23:48:09.327Z,7.57
2022-08-30T23:51:26.815Z,7.77
2022-08-30T23:54:44.397Z,7.65
2022-08-30T23:58:04.587Z,7.93
